This is the latest recevied weather packets stored in our database for station/object EA5GTE-12. If no packets are shown the sender has not sent any weather packets the latest 10 day(s).
| Time | Temp. | Humidity | Pressure | Rain* | Wind** | Luminosity | Snow |
|---|---|---|---|---|---|---|---|
| 1777896440 | 22.22° C | 34% | 934.7 hPa | - | - | - | - |
| 1777895540 | 22.22° C | 41% | 935 hPa | - | - | - | - |
| 1777894640 | 21.67° C | 43% | 935.2 hPa | - | - | - | - |
| 1777893740 | 22.22° C | 44% | 935.4 hPa | - | - | - | - |
| 1777892840 | 23.89° C | 39% | 935.5 hPa | - | - | - | - |
| 1777891940 | 22.78° C | 45% | 935.8 hPa | - | - | - | - |
| 1777891040 | 23.89° C | 41% | 935.9 hPa | - | - | - | - |
| 1777890140 | 22.78° C | 46% | 936 hPa | - | - | - | - |
| 1777889240 | 23.89° C | 45% | 936 hPa | - | - | - | - |
| 1777888340 | 22.22° C | 49% | 936.1 hPa | - | - | - | - |
| 1777887440 | 23.33° C | 49% | 936.1 hPa | - | - | - | - |
| 1777886540 | 25° C | 46% | 936.1 hPa | - | - | - | - |
| 1777885639 | 20° C | 77% | 936.2 hPa | - | - | - | - |
| 1777884739 | 17.78° C | 100% | 936.3 hPa | - | - | - | - |
| 1777883839 | 17.22° C | 100% | 936.5 hPa | - | - | - | - |
| 1777882939 | 15.56° C | 100% | 936.5 hPa | - | - | - | - |
| 1777882039 | 14.44° C | 100% | 936.5 hPa | - | - | - | - |
| 1777881139 | 12.78° C | 100% | 936.8 hPa | - | - | - | - |
| 1777880239 | 13.33° C | 100% | 936.7 hPa | - | - | - | - |
| 1777879339 | 12.78° C | 100% | 936.5 hPa | - | - | - | - |
| 1777877547 | 13.89° C | 100% | 936.4 hPa | - | - | - | - |
| 1777876647 | 13.89° C | 100% | 936.2 hPa | - | - | - | - |
| 1777875747 | 14.44° C | 100% | 936.1 hPa | - | - | - | - |
| 1777874847 | 13.89° C | 100% | 936 hPa | - | - | - | - |
| 1777873947 | 13.89° C | 100% | 935.9 hPa | - | - | - | - |
* Rain since midnight (hover to see other rain measurements)
** Current wind speed in m/s (hover to see current wind gust speed)